Stanley, NM (87056)

05:50 MDT le 23 mai 2015 (GMT -0600)
Rural Stanley | | Change Station
CLOSE
Current Station
Stations météorologiques personnelles
Location: New Mexico, NM
Altitude: 6414 ft
Stations météo à proximité

Alt. 6414 ft 35.13 °N, 106.11 °W | Updated 35 seconds ago

Ciel dégagé
Ciel dégagé
46.6 ° F
Paraît 44 ° F
N
4.9
Vent Variable Vent de ONO
Gusts 8.0 mph

Aujourd'hui
Haut(e) -- | Bas -- ° F
--% Risque de précip.
Hier
Haut(e) -- | Bas -- ° F
Precip. -- pouce
5:54 AM 8:06 PM
Lune montante, 29% visible
Pression 30.04 pouce
Visibilité 10.0 Miles terrestres
Nuages Ciel dégagé
Refroidissement éolien 44 ° F
Point de rosée 31 ° F
Humidité 55%
Précipitations 0.00 pouce
Profondeur de la couche neigeuse Non disponible.
UV 0.0 sur 12
Pollen 4.90 sur 12
Qualité de l'air Non disponible.
Flu Activity Local Activity
METAR K0E0 231135Z AUTO 11003KT 10SM CLR 05/01 A3004 RMK AO2 LTG DSNT E T00450009

More Conditions Fewer Conditions

Pression 30.04 pouce
Visibilité 10.0 Miles terrestres
Nuages Ciel dégagé
Refroidissement éolien 44 ° F
Point de rosée 31 ° F
Humidité 55%
Précipitations 0.00 pouce
Profondeur de la couche neigeuse Non disponible.
UV 0.0 sur 12
Pollen 4.90 sur 12
Qualité de l'air Non disponible.
Flu Activity Local Activity
METAR K0E0 231135Z AUTO 11003KT 10SM CLR 05/01 A3004 RMK AO2 LTG DSNT E T00450009

More Conditions Fewer Conditions

10-Day Weather Forecast

Almanac

Astronomie

May. 23, 2015 Lever Coucher
Temps réel
Crépuscule civil
Crépuscule nautique
Crépuscule astronomique
Lune
Durée de lumière visible
Longueur du jour
Tomorrow will be .
, % of the Moon is Illuminated

Extrêmes aujourd'hui

State Highs State Lows

Community

WunderPhotos

Upload Photos

1,823,435 Photos téléchargées !

WunderBlogs® & News

Nearby

Qualité de l'air

  Qualité de l'air Indice de la qualité de l'air Polluant
Not available.

Épaisseur de neige

Station Depth Altitude

Activité sismique

Ville Distance Mag. Time & Date
Minimum magnitude displayed is 2.5.

Températures des eaux côtières

Lieu Température

Stations

Stations météo à proximité

Emplacement de la station Température Refroidissement éolien Point de rosée Humidité Vent Precip. Alt. Mise à jour Type